Exeter, New Hampshire
Current Conditions -  °F | °C
As of 3:58 PM on Saturday 25 Oct 2014 (Local Time) from KPSM Reporting Station
Scattered Clouds Scattered Clouds  
Wind Chill: 18°   Ceiling: Unl
Heat Index: 18°   Visibility: 10mi
Dew Point:   Wind: 7mph
Humidity: 34%   Direction: 260°W
Pressure: 29.56"   Gusts: NA
Location:  42.98°N, 70.95°W
Report Text: KPSM 251958Z 26006KT 10SM SCT250 18/02 A2956 RMK AO2A SLP013 T01840023
Loading
Personal Weather Stations






























Interactive Weather Map
Tropical Storm Tracking
New forecast layout! Learn more

10-Day Weather Forecast

Advertisements
Track Severe Weather on mobile